CEB026 RPLL-RPVE
Flight info
| Callsign | CEB026 |
|---|---|
| Flight time | 0h 41m |
| Altitude | 27000 |
| Route | HARBO1 HARBO DCT VERDE W24 TAPER TAPER7B |
| Aircraft | A20N/M-SDE2E3FGHIRWXY/LB1 |
Departure
| Time | 2026-04-20 20:11 |
|---|---|
| Airport | Ninoy Aquino International Airport (RPLL) |
Arrival
| Time | 2026-04-20 20:52 |
|---|---|
| Airport | Godofredo P. Ramos Airport (RPVE) |
| Time | Latitude | Longitude | Altitude | Speed | Heading |
|---|---|---|---|---|---|
| 2026-04-20 19:44 | 14.51709 | 121.01473 | 84 ft | 0 kts | 46° |
| 2026-04-20 20:02 | 14.51708 | 121.01472 | 84 ft | 1 kts | 46° |
| 2026-04-20 20:02 | 14.51698 | 121.01462 | 84 ft | 2 kts | 46° |
| 2026-04-20 20:02 | 14.51688 | 121.01450 | 84 ft | 2 kts | 46° |
| 2026-04-20 20:02 | 14.51677 | 121.01439 | 84 ft | 2 kts | 46° |
| 2026-04-20 20:03 | 14.51667 | 121.01427 | 84 ft | 2 kts | 46° |
| 2026-04-20 20:03 | 14.51657 | 121.01416 | 84 ft | 2 kts | 68° |
| 2026-04-20 20:03 | 14.51654 | 121.01402 | 84 ft | 2 kts | 89° |
| 2026-04-20 20:03 | 14.51656 | 121.01387 | 84 ft | 2 kts | 113° |
| 2026-04-20 20:04 | 14.51662 | 121.01376 | 84 ft | 0 kts | 132° |
| 2026-04-20 20:04 | 14.51667 | 121.01371 | 84 ft | 0 kts | 136° |
| 2026-04-20 20:06 | 14.51666 | 121.01372 | 84 ft | 0 kts | 136° |
| 2026-04-20 20:06 | 14.51655 | 121.01383 | 84 ft | 4 kts | 135° |
| 2026-04-20 20:07 | 14.51623 | 121.01417 | 84 ft | 8 kts | 135° |
| 2026-04-20 20:07 | 14.51576 | 121.01465 | 84 ft | 10 kts | 135° |
| 2026-04-20 20:07 | 14.51522 | 121.01520 | 84 ft | 11 kts | 135° |
| 2026-04-20 20:07 | 14.51462 | 121.01581 | 84 ft | 12 kts | 147° |
| 2026-04-20 20:08 | 14.51389 | 121.01576 | 84 ft | 10 kts | 184° |
| 2026-04-20 20:08 | 14.51329 | 121.01615 | 84 ft | 11 kts | 134° |
| 2026-04-20 20:08 | 14.51273 | 121.01675 | 84 ft | 11 kts | 134° |
| 2026-04-20 20:08 | 14.51214 | 121.01736 | 84 ft | 12 kts | 135° |
| 2026-04-20 20:09 | 14.51151 | 121.01801 | 84 ft | 12 kts | 135° |
| 2026-04-20 20:09 | 14.51086 | 121.01859 | 84 ft | 6 kts | 160° |
| 2026-04-20 20:09 | 14.51044 | 121.01847 | 84 ft | 7 kts | 227° |
| 2026-04-20 20:09 | 14.51023 | 121.01804 | 84 ft | 5 kts | 259° |
| 2026-04-20 20:10 | 14.51039 | 121.01768 | 84 ft | 6 kts | 319° |
| 2026-04-20 20:10 | 14.51048 | 121.01759 | 84 ft | 0 kts | 316° |
| 2026-04-20 20:10 | 14.51052 | 121.01755 | 84 ft | 6 kts | 316° |
| 2026-04-20 20:10 | 14.51324 | 121.01476 | 84 ft | 102 kts | 315° |
| 2026-04-20 20:11 | 14.52016 | 121.00759 | 166 ft | 169 kts | 314° |
| 2026-04-20 20:11 | 14.52888 | 120.99841 | 729 ft | 194 kts | 314° |
| 2026-04-20 20:11 | 14.53877 | 120.98797 | 1502 ft | 217 kts | 314° |
| 2026-04-20 20:11 | 14.54970 | 120.97636 | 2347 ft | 234 kts | 315° |
| 2026-04-20 20:12 | 14.56197 | 120.96390 | 2862 ft | 256 kts | 316° |
| 2026-04-20 20:12 | 14.57480 | 120.95095 | 3088 ft | 261 kts | 315° |
| 2026-04-20 20:12 | 14.58774 | 120.93775 | 3110 ft | 264 kts | 315° |
| 2026-04-20 20:13 | 14.61437 | 120.91026 | 4845 ft | 270 kts | 315° |
| 2026-04-20 20:13 | 14.62618 | 120.89548 | 5938 ft | 272 kts | 299° |
| 2026-04-20 20:13 | 14.63206 | 120.87704 | 6931 ft | 276 kts | 275° |
| 2026-04-20 20:13 | 14.63025 | 120.85737 | 7922 ft | 280 kts | 251° |
| 2026-04-20 20:14 | 14.62093 | 120.84003 | 8876 ft | 284 kts | 228° |
| 2026-04-20 20:14 | 14.60535 | 120.82777 | 9809 ft | 288 kts | 204° |
| 2026-04-20 20:14 | 14.58573 | 120.82302 | 10680 ft | 294 kts | 180° |
| 2026-04-20 20:14 | 14.56553 | 120.82716 | 11203 ft | 311 kts | 155° |
| 2026-04-20 20:15 | 14.54792 | 120.84112 | 11652 ft | 330 kts | 128° |
| 2026-04-20 20:15 | 14.53802 | 120.86286 | 12218 ft | 344 kts | 103° |
| 2026-04-20 20:15 | 14.53268 | 120.88712 | 13108 ft | 347 kts | 108° |
| 2026-04-20 20:15 | 14.52041 | 120.90845 | 13884 ft | 352 kts | 135° |
| 2026-04-20 20:16 | 14.50031 | 120.92215 | 14537 ft | 355 kts | 159° |
| 2026-04-20 20:16 | 14.47619 | 120.92732 | 14920 ft | 357 kts | 175° |
| 2026-04-20 20:16 | 14.45116 | 120.92892 | 14981 ft | 358 kts | 177° |
| 2026-04-20 20:16 | 14.42626 | 120.93022 | 15235 ft | 365 kts | 176° |
| 2026-04-20 20:17 | 14.40089 | 120.93199 | 16107 ft | 366 kts | 175° |
| 2026-04-20 20:17 | 14.37588 | 120.93412 | 16960 ft | 367 kts | 175° |
| 2026-04-20 20:17 | 14.35043 | 120.93657 | 17690 ft | 371 kts | 174° |
| 2026-04-20 20:17 | 14.32461 | 120.93924 | 18400 ft | 375 kts | 174° |
| 2026-04-20 20:18 | 14.29841 | 120.94206 | 19103 ft | 379 kts | 174° |
| 2026-04-20 20:18 | 14.27204 | 120.94497 | 19785 ft | 383 kts | 174° |
| 2026-04-20 20:18 | 14.24563 | 120.94791 | 20443 ft | 387 kts | 174° |
| 2026-04-20 20:18 | 14.21922 | 120.95087 | 21078 ft | 391 kts | 174° |
| 2026-04-20 20:19 | 14.19114 | 120.95403 | 21730 ft | 395 kts | 174° |
| 2026-04-20 20:19 | 14.16367 | 120.95712 | 22345 ft | 398 kts | 174° |
| 2026-04-20 20:19 | 14.13574 | 120.96027 | 22950 ft | 402 kts | 174° |
| 2026-04-20 20:19 | 14.10734 | 120.96348 | 23538 ft | 406 kts | 174° |
| 2026-04-20 20:20 | 14.07953 | 120.96664 | 24094 ft | 409 kts | 173° |
| 2026-04-20 20:20 | 14.05078 | 120.96998 | 24646 ft | 413 kts | 173° |
| 2026-04-20 20:20 | 14.02243 | 120.97325 | 25167 ft | 416 kts | 173° |
| 2026-04-20 20:20 | 13.99328 | 120.97659 | 25680 ft | 419 kts | 173° |
| 2026-04-20 20:21 | 13.96481 | 120.97983 | 26162 ft | 422 kts | 174° |
| 2026-04-20 20:21 | 13.93613 | 120.98308 | 26627 ft | 425 kts | 174° |
| 2026-04-20 20:21 | 13.90636 | 120.98644 | 26943 ft | 428 kts | 174° |
| 2026-04-20 20:21 | 13.87621 | 120.98983 | 26984 ft | 428 kts | 174° |
| 2026-04-20 20:22 | 13.85619 | 120.99207 | 26989 ft | 428 kts | 174° |
| 2026-04-20 20:22 | 13.81619 | 120.99657 | 26994 ft | 428 kts | 174° |
| 2026-04-20 20:22 | 13.78667 | 120.99988 | 26996 ft | 428 kts | 174° |
| 2026-04-20 20:22 | 13.75692 | 121.00323 | 26996 ft | 428 kts | 174° |
| 2026-04-20 20:23 | 13.72738 | 121.00655 | 26996 ft | 428 kts | 174° |
| 2026-04-20 20:23 | 13.69786 | 121.00988 | 26997 ft | 428 kts | 174° |
| 2026-04-20 20:23 | 13.66820 | 121.01323 | 26997 ft | 428 kts | 174° |
| 2026-04-20 20:23 | 13.63851 | 121.01658 | 26997 ft | 428 kts | 174° |
| 2026-04-20 20:24 | 13.60851 | 121.01997 | 26997 ft | 428 kts | 174° |
| 2026-04-20 20:24 | 13.57846 | 121.02335 | 26997 ft | 428 kts | 174° |
| 2026-04-20 20:24 | 13.55907 | 121.02554 | 26997 ft | 428 kts | 174° |
| 2026-04-20 20:24 | 13.52920 | 121.02989 | 26983 ft | 433 kts | 166° |
| 2026-04-20 20:25 | 13.50054 | 121.03876 | 26967 ft | 435 kts | 157° |
| 2026-04-20 20:25 | 13.47301 | 121.05271 | 26952 ft | 433 kts | 147° |
| 2026-04-20 20:25 | 13.44771 | 121.06984 | 26941 ft | 433 kts | 144° |
| 2026-04-20 20:25 | 13.42287 | 121.08778 | 26931 ft | 432 kts | 143° |
| 2026-04-20 20:26 | 13.39768 | 121.10599 | 26925 ft | 431 kts | 146° |
| 2026-04-20 20:26 | 13.37315 | 121.12358 | 26920 ft | 425 kts | 146° |
| 2026-04-20 20:26 | 13.34865 | 121.14080 | 26915 ft | 424 kts | 146° |
| 2026-04-20 20:26 | 13.32394 | 121.15805 | 26912 ft | 424 kts | 147° |
| 2026-04-20 20:27 | 13.29923 | 121.17530 | 26911 ft | 424 kts | 147° |
| 2026-04-20 20:27 | 13.27467 | 121.19248 | 26909 ft | 424 kts | 147° |
| 2026-04-20 20:27 | 13.25022 | 121.20959 | 26909 ft | 425 kts | 147° |
| 2026-04-20 20:27 | 13.22570 | 121.22676 | 26909 ft | 425 kts | 147° |
| 2026-04-20 20:28 | 13.20915 | 121.23835 | 26908 ft | 425 kts | 147° |
| 2026-04-20 20:28 | 13.17623 | 121.26141 | 26908 ft | 425 kts | 147° |
| 2026-04-20 20:28 | 13.15181 | 121.27852 | 26909 ft | 425 kts | 147° |
| 2026-04-20 20:28 | 13.12723 | 121.29574 | 26908 ft | 425 kts | 147° |
| 2026-04-20 20:29 | 13.10277 | 121.31287 | 26906 ft | 425 kts | 147° |
| 2026-04-20 20:29 | 13.07813 | 121.33012 | 26665 ft | 425 kts | 147° |
| 2026-04-20 20:29 | 13.05366 | 121.34727 | 26413 ft | 424 kts | 147° |
| 2026-04-20 20:29 | 13.02916 | 121.36441 | 26160 ft | 424 kts | 147° |
| 2026-04-20 20:30 | 13.00494 | 121.38135 | 25910 ft | 423 kts | 147° |
| 2026-04-20 20:30 | 12.98051 | 121.39844 | 25642 ft | 422 kts | 147° |
| 2026-04-20 20:30 | 12.95620 | 121.41544 | 25351 ft | 421 kts | 147° |
| 2026-04-20 20:30 | 12.93176 | 121.43253 | 24968 ft | 420 kts | 147° |
| 2026-04-20 20:31 | 12.90774 | 121.44933 | 24519 ft | 416 kts | 147° |
| 2026-04-20 20:31 | 12.88613 | 121.46442 | 24084 ft | 413 kts | 147° |
| 2026-04-20 20:31 | 12.86541 | 121.47882 | 23654 ft | 410 kts | 147° |
| 2026-04-20 20:31 | 12.83970 | 121.49668 | 23112 ft | 407 kts | 147° |
| 2026-04-20 20:32 | 12.81800 | 121.51178 | 22649 ft | 404 kts | 147° |
| 2026-04-20 20:32 | 12.77517 | 121.54164 | 21726 ft | 398 kts | 147° |
| 2026-04-20 20:32 | 12.75637 | 121.55475 | 21317 ft | 396 kts | 147° |
| 2026-04-20 20:33 | 12.73384 | 121.57047 | 20826 ft | 393 kts | 147° |
| 2026-04-20 20:33 | 12.70808 | 121.58845 | 20264 ft | 389 kts | 147° |
| 2026-04-20 20:33 | 12.69028 | 121.60087 | 19876 ft | 387 kts | 147° |
| 2026-04-20 20:33 | 12.66889 | 121.61580 | 19406 ft | 384 kts | 147° |
| 2026-04-20 20:34 | 12.64682 | 121.63120 | 18918 ft | 382 kts | 147° |
| 2026-04-20 20:34 | 12.62503 | 121.64641 | 18434 ft | 379 kts | 147° |
| 2026-04-20 20:34 | 12.60498 | 121.66045 | 17985 ft | 377 kts | 147° |
| 2026-04-20 20:34 | 12.58401 | 121.67522 | 17513 ft | 374 kts | 147° |
| 2026-04-20 20:35 | 12.56189 | 121.69076 | 17020 ft | 372 kts | 147° |
| 2026-04-20 20:35 | 12.54058 | 121.70567 | 16543 ft | 369 kts | 147° |
| 2026-04-20 20:35 | 12.51949 | 121.72041 | 16070 ft | 366 kts | 147° |
| 2026-04-20 20:35 | 12.49831 | 121.73518 | 15593 ft | 364 kts | 147° |
| 2026-04-20 20:36 | 12.47771 | 121.74954 | 15126 ft | 361 kts | 147° |
| 2026-04-20 20:36 | 12.45711 | 121.76389 | 14662 ft | 359 kts | 147° |
| 2026-04-20 20:36 | 12.43657 | 121.77820 | 14197 ft | 357 kts | 147° |
| 2026-04-20 20:36 | 12.41609 | 121.79246 | 13732 ft | 354 kts | 147° |
| 2026-04-20 20:37 | 12.39577 | 121.80660 | 13271 ft | 352 kts | 147° |
| 2026-04-20 20:37 | 12.37537 | 121.81995 | 12811 ft | 349 kts | 153° |
| 2026-04-20 20:37 | 12.35358 | 121.83057 | 12355 ft | 345 kts | 160° |
| 2026-04-20 20:37 | 12.33095 | 121.83828 | 11899 ft | 342 kts | 165° |
| 2026-04-20 20:38 | 12.30806 | 121.84506 | 11439 ft | 340 kts | 166° |
| 2026-04-20 20:38 | 12.28542 | 121.85162 | 10980 ft | 338 kts | 166° |
| 2026-04-20 20:38 | 12.26314 | 121.85812 | 10540 ft | 334 kts | 166° |
| 2026-04-20 20:38 | 12.24073 | 121.86471 | 10246 ft | 324 kts | 165° |
| 2026-04-20 20:39 | 12.21977 | 121.87093 | 10139 ft | 310 kts | 165° |
| 2026-04-20 20:39 | 12.19936 | 121.87701 | 10040 ft | 297 kts | 165° |
| 2026-04-20 20:39 | 12.18002 | 121.88277 | 9925 ft | 285 kts | 165° |
| 2026-04-20 20:39 | 12.16116 | 121.88837 | 9572 ft | 283 kts | 165° |
| 2026-04-20 20:40 | 12.14220 | 121.89401 | 9239 ft | 280 kts | 165° |
| 2026-04-20 20:40 | 12.12376 | 121.89948 | 8921 ft | 276 kts | 165° |
| 2026-04-20 20:40 | 12.10541 | 121.90494 | 8607 ft | 273 kts | 165° |
| 2026-04-20 20:40 | 12.08730 | 121.91032 | 8299 ft | 270 kts | 165° |
| 2026-04-20 20:41 | 12.06938 | 121.91554 | 7990 ft | 266 kts | 169° |
| 2026-04-20 20:41 | 12.05135 | 121.91591 | 7649 ft | 259 kts | 195° |
| 2026-04-20 20:41 | 12.03538 | 121.90807 | 7340 ft | 252 kts | 222° |
| 2026-04-20 20:41 | 12.02417 | 121.89482 | 7060 ft | 245 kts | 236° |
| 2026-04-20 20:42 | 12.01462 | 121.88048 | 6775 ft | 242 kts | 238° |
| 2026-04-20 20:42 | 12.00529 | 121.86622 | 6495 ft | 238 kts | 237° |
| 2026-04-20 20:42 | 11.99604 | 121.85231 | 6222 ft | 234 kts | 237° |
| 2026-04-20 20:42 | 11.98692 | 121.83881 | 5955 ft | 231 kts | 237° |
| 2026-04-20 20:43 | 11.97775 | 121.82538 | 5691 ft | 228 kts | 236° |
| 2026-04-20 20:43 | 11.96863 | 121.81207 | 5429 ft | 225 kts | 236° |
| 2026-04-20 20:43 | 11.95979 | 121.79920 | 5177 ft | 221 kts | 236° |
| 2026-04-20 20:43 | 11.95088 | 121.78626 | 4922 ft | 218 kts | 236° |
| 2026-04-20 20:44 | 11.94244 | 121.77399 | 4782 ft | 206 kts | 236° |
| 2026-04-20 20:44 | 11.93426 | 121.76211 | 4489 ft | 201 kts | 236° |
| 2026-04-20 20:44 | 11.92634 | 121.75073 | 4256 ft | 192 kts | 233° |
| 2026-04-20 20:44 | 11.91661 | 121.74213 | 4019 ft | 180 kts | 211° |
| 2026-04-20 20:45 | 11.90549 | 121.73824 | 3950 ft | 157 kts | 189° |
| 2026-04-20 20:45 | 11.89506 | 121.73839 | 3895 ft | 146 kts | 170° |
| 2026-04-20 20:45 | 11.88548 | 121.74166 | 3880 ft | 144 kts | 155° |
| 2026-04-20 20:45 | 11.87643 | 121.74639 | 3863 ft | 144 kts | 152° |
| 2026-04-20 20:46 | 11.86764 | 121.75121 | 3841 ft | 144 kts | 152° |
| 2026-04-20 20:46 | 11.85872 | 121.75603 | 3817 ft | 144 kts | 152° |
| 2026-04-20 20:46 | 11.84991 | 121.76070 | 3790 ft | 144 kts | 152° |
| 2026-04-20 20:46 | 11.84212 | 121.76720 | 3618 ft | 144 kts | 124° |
| 2026-04-20 20:47 | 11.83845 | 121.77646 | 3461 ft | 142 kts | 96° |
| 2026-04-20 20:47 | 11.83945 | 121.78628 | 3306 ft | 140 kts | 68° |
| 2026-04-20 20:47 | 11.84367 | 121.79539 | 3156 ft | 139 kts | 60° |
| 2026-04-20 20:47 | 11.84825 | 121.80394 | 2997 ft | 139 kts | 60° |
| 2026-04-20 20:48 | 11.85288 | 121.81264 | 2837 ft | 138 kts | 60° |
| 2026-04-20 20:48 | 11.85745 | 121.82142 | 2678 ft | 138 kts | 61° |
| 2026-04-20 20:48 | 11.86189 | 121.83010 | 2522 ft | 138 kts | 61° |
| 2026-04-20 20:48 | 11.86631 | 121.83879 | 2366 ft | 137 kts | 62° |
| 2026-04-20 20:49 | 11.87068 | 121.84746 | 2206 ft | 137 kts | 62° |
| 2026-04-20 20:49 | 11.87507 | 121.85616 | 2023 ft | 136 kts | 62° |
| 2026-04-20 20:49 | 11.87941 | 121.86480 | 1982 ft | 136 kts | 62° |
| 2026-04-20 20:49 | 11.88374 | 121.87341 | 1934 ft | 138 kts | 62° |
| 2026-04-20 20:50 | 11.88808 | 121.88204 | 1853 ft | 135 kts | 62° |
| 2026-04-20 20:50 | 11.89240 | 121.89062 | 1865 ft | 135 kts | 62° |
| 2026-04-20 20:50 | 11.89663 | 121.89906 | 1617 ft | 132 kts | 62° |
| 2026-04-20 20:50 | 11.90082 | 121.90739 | 1485 ft | 134 kts | 62° |
| 2026-04-20 20:51 | 11.90513 | 121.91588 | 1437 ft | 136 kts | 61° |
| 2026-04-20 20:51 | 11.90970 | 121.92448 | 1091 ft | 140 kts | 61° |
| 2026-04-20 20:51 | 11.91418 | 121.93343 | 600 ft | 147 kts | 62° |
| 2026-04-20 20:51 | 11.91895 | 121.94280 | 233 ft | 143 kts | 63° |
| 2026-04-20 20:52 | 11.92325 | 121.95137 | 48 ft | 132 kts | 62° |
| 2026-04-20 20:52 | 11.92678 | 121.95836 | 31 ft | 70 kts | 62° |
| 2026-04-20 20:52 | 11.92788 | 121.96059 | 31 ft | 9 kts | 63° |
| 2026-04-20 20:52 | 11.92785 | 121.96121 | 31 ft | 10 kts | 137° |
| 2026-04-20 20:53 | 11.92721 | 121.96155 | 31 ft | 10 kts | 156° |
| 2026-04-20 20:53 | 11.92657 | 121.96189 | 31 ft | 9 kts | 142° |
| 2026-04-20 20:53 | 11.92653 | 121.96250 | 31 ft | 10 kts | 64° |
| 2026-04-20 20:53 | 11.92687 | 121.96317 | 31 ft | 10 kts | 61° |
| 2026-04-20 20:54 | 11.92710 | 121.96358 | 31 ft | 5 kts | 62° |
| 2026-04-20 20:54 | 11.92723 | 121.96385 | 31 ft | 1 kts | 62° |
| 2026-04-20 20:54 | 11.92726 | 121.96396 | 31 ft | 1 kts | 92° |
| 2026-04-20 20:54 | 11.92720 | 121.96407 | 31 ft | 2 kts | 131° |
| 2026-04-20 20:55 | 11.92703 | 121.96418 | 31 ft | 3 kts | 150° |
| 2026-04-20 20:55 | 11.92684 | 121.96428 | 31 ft | 2 kts | 154° |
| 2026-04-20 20:55 | 11.92680 | 121.96430 | 31 ft | 0 kts | 154° |